createdAt,value
2018-09-20T00:01:30.041Z,16.10
2018-09-20T00:03:57.845Z,16.10
2018-09-20T00:06:25.715Z,15.90
2018-09-20T00:08:53.879Z,16.00
2018-09-20T00:11:21.751Z,16.00
2018-09-20T00:13:49.590Z,16.00
2018-09-20T00:16:17.461Z,15.90
2018-09-20T00:18:45.334Z,15.80
2018-09-20T00:21:13.317Z,15.70
2018-09-20T00:23:41.177Z,15.70
2018-09-20T00:26:09.274Z,15.70
2018-09-20T00:28:37.739Z,15.70
2018-09-20T00:31:06.289Z,15.60
2018-09-20T00:33:34.144Z,15.60
2018-09-20T00:36:02.074Z,15.50
2018-09-20T00:38:30.512Z,15.50
2018-09-20T00:40:58.386Z,15.30
2018-09-20T00:43:26.245Z,15.30
2018-09-20T00:45:54.093Z,15.20
2018-09-20T00:48:21.968Z,15.10
2018-09-20T00:50:49.793Z,15.20
2018-09-20T00:53:17.610Z,15.20
2018-09-20T00:55:45.424Z,15.30
2018-09-20T00:58:13.259Z,15.20
2018-09-20T01:00:41.089Z,15.30
2018-09-20T01:03:08.889Z,15.30
2018-09-20T01:05:38.833Z,15.30
2018-09-20T01:08:06.700Z,15.30
2018-09-20T01:10:43.032Z,15.40
2018-09-20T01:13:11.736Z,15.30
2018-09-20T01:15:39.574Z,15.30
2018-09-20T01:18:09.332Z,15.30
2018-09-20T01:20:37.282Z,15.20
2018-09-20T01:23:05.717Z,15.30
2018-09-20T01:25:33.541Z,15.20
2018-09-20T01:28:01.360Z,15.20
2018-09-20T01:30:33.428Z,15.30
2018-09-20T01:33:03.172Z,15.30
2018-09-20T01:35:33.200Z,15.20
2018-09-20T01:38:04.235Z,15.10
2018-09-20T01:40:36.252Z,15.00
2018-09-20T01:43:10.227Z,15.10
2018-09-20T01:45:39.365Z,15.10
2018-09-20T01:48:07.470Z,15.00
2018-09-20T01:50:40.311Z,15.00
2018-09-20T01:53:08.166Z,15.00
2018-09-20T01:55:46.801Z,14.90
2018-09-20T01:58:14.634Z,15.00
2018-09-20T02:00:45.144Z,15.00
2018-09-20T02:03:13.543Z,15.10
2018-09-20T02:05:41.527Z,15.00
2018-09-20T02:08:12.738Z,14.90
2018-09-20T02:10:40.638Z,14.90
2018-09-20T02:13:08.484Z,14.90
2018-09-20T02:15:36.323Z,14.90
2018-09-20T02:18:04.514Z,14.90
2018-09-20T02:20:32.335Z,14.90
2018-09-20T02:23:00.145Z,14.80
2018-09-20T02:25:28.004Z,14.80
2018-09-20T02:27:55.851Z,14.80
2018-09-20T02:30:23.689Z,14.70
2018-09-20T02:32:51.527Z,14.70
2018-09-20T02:35:19.387Z,14.80
2018-09-20T02:37:47.258Z,14.80
2018-09-20T02:40:15.105Z,14.80
2018-09-20T02:42:42.972Z,14.60
2018-09-20T02:45:10.836Z,14.50
2018-09-20T02:47:38.669Z,14.50
2018-09-20T02:50:06.631Z,14.40
2018-09-20T02:52:34.466Z,14.20
2018-09-20T02:55:02.349Z,14.20
2018-09-20T02:57:30.226Z,14.20
2018-09-20T02:59:58.077Z,14.20
2018-09-20T03:02:25.894Z,14.30
2018-09-20T03:04:57.665Z,14.30
2018-09-20T03:07:26.364Z,14.30
2018-09-20T03:09:56.442Z,14.30
2018-09-20T03:12:27.168Z,14.10
2018-09-20T03:14:58.000Z,14.10
2018-09-20T03:17:29.955Z,14.10
2018-09-20T03:19:57.800Z,14.10
2018-09-20T03:22:26.265Z,14.20
2018-09-20T03:24:56.571Z,14.10
2018-09-20T03:27:26.958Z,14.10
2018-09-20T03:29:54.779Z,14.10
2018-09-20T03:32:22.602Z,14.10
2018-09-20T03:34:52.773Z,14.00
2018-09-20T03:37:23.392Z,14.00
2018-09-20T03:39:54.621Z,13.90
2018-09-20T03:42:25.789Z,13.90
2018-09-20T03:44:55.683Z,13.90
2018-09-20T03:47:25.172Z,13.90
2018-09-20T03:49:54.035Z,14.00
2018-09-20T03:52:23.850Z,13.90
2018-09-20T03:54:57.714Z,13.90
2018-09-20T03:57:26.704Z,13.90
2018-09-20T03:59:58.665Z,13.80
2018-09-20T04:02:28.759Z,13.80
2018-09-20T04:04:56.585Z,13.80
2018-09-20T04:07:29.953Z,13.80
2018-09-20T04:09:59.810Z,13.60
2018-09-20T04:12:29.886Z,13.50
2018-09-20T04:15:00.091Z,13.50
2018-09-20T04:17:29.546Z,13.50
2018-09-20T04:19:57.429Z,13.40
2018-09-20T04:22:25.265Z,13.40
2018-09-20T04:24:53.311Z,13.50
2018-09-20T04:27:21.197Z,13.60
2018-09-20T04:29:48.993Z,13.70
2018-09-20T04:32:17.564Z,13.70
2018-09-20T04:34:46.806Z,13.70
2018-09-20T04:37:17.178Z,13.70
2018-09-20T04:39:45.314Z,13.50
2018-09-20T04:42:16.336Z,13.50
2018-09-20T04:44:44.976Z,13.50
2018-09-20T04:47:13.697Z,13.30
2018-09-20T04:49:41.527Z,13.40
2018-09-20T04:52:09.339Z,13.40
2018-09-20T04:54:37.188Z,13.30
2018-09-20T04:57:06.340Z,13.20
2018-09-20T04:59:34.705Z,13.30
2018-09-20T05:02:02.598Z,13.40
2018-09-20T05:04:31.103Z,13.40
2018-09-20T05:07:00.772Z,13.40
2018-09-20T05:09:28.693Z,13.40
2018-09-20T05:11:56.526Z,13.40
2018-09-20T05:14:26.658Z,13.30
2018-09-20T05:16:55.100Z,13.40
2018-09-20T05:19:23.915Z,13.40
2018-09-20T05:21:51.929Z,13.30
2018-09-20T05:24:21.389Z,13.20
2018-09-20T05:26:49.639Z,13.20
2018-09-20T05:29:21.528Z,13.30
2018-09-20T05:31:51.494Z,13.40
2018-09-20T05:34:19.539Z,13.40
2018-09-20T05:36:55.075Z,13.50
2018-09-20T05:39:23.029Z,13.60
2018-09-20T05:41:52.109Z,13.70
2018-09-20T05:44:23.914Z,13.80
2018-09-20T05:46:56.284Z,13.90
2018-09-20T05:49:28.649Z,13.90
2018-09-20T05:52:04.905Z,14.00
2018-09-20T05:54:33.694Z,14.00
2018-09-20T05:57:08.526Z,14.10
2018-09-20T05:59:41.120Z,14.20
2018-09-20T06:02:12.362Z,14.30
2018-09-20T06:04:44.696Z,14.50
2018-09-20T06:07:15.788Z,14.80
2018-09-20T06:09:49.128Z,15.10
2018-09-20T06:12:21.142Z,15.20
2018-09-20T06:14:50.795Z,15.50
2018-09-20T06:17:23.744Z,15.50
2018-09-20T06:19:55.220Z,15.60
2018-09-20T06:22:27.027Z,15.90
2018-09-20T06:24:55.861Z,16.10
2018-09-20T06:27:25.860Z,16.40
2018-09-20T06:29:56.559Z,16.60
2018-09-20T06:32:25.323Z,16.80
2018-09-20T06:34:55.844Z,17.20
2018-09-20T06:37:26.490Z,17.50
2018-09-20T06:39:57.943Z,17.60
2018-09-20T06:42:29.566Z,17.90
2018-09-20T06:45:00.108Z,18.10
2018-09-20T06:47:32.257Z,18.10
2018-09-20T06:50:03.809Z,18.30
2018-09-20T06:52:33.160Z,18.50
2018-09-20T06:55:01.462Z,18.50
2018-09-20T06:57:33.928Z,18.60
2018-09-20T07:00:03.199Z,18.70
2018-09-20T07:02:31.565Z,18.80
2018-09-20T07:05:00.529Z,18.90
2018-09-20T07:07:28.833Z,19.10
2018-09-20T07:09:57.524Z,19.30
2018-09-20T07:12:27.882Z,19.50
2018-09-20T07:14:56.725Z,19.60
2018-09-20T07:17:26.157Z,19.70
2018-09-20T07:19:54.332Z,19.70
2018-09-20T07:22:23.565Z,19.90
2018-09-20T07:24:52.101Z,19.90
2018-09-20T07:27:20.021Z,20.00
2018-09-20T07:29:49.411Z,20.20
2018-09-20T07:32:18.825Z,20.40
2018-09-20T07:34:47.309Z,20.50
2018-09-20T07:37:17.127Z,20.60
2018-09-20T07:39:45.458Z,20.80
2018-09-20T07:42:15.528Z,20.90
2018-09-20T07:44:43.500Z,21.00
2018-09-20T07:47:12.388Z,21.10
2018-09-20T07:49:41.146Z,21.20
2018-09-20T07:52:10.689Z,21.30
2018-09-20T07:54:38.653Z,21.40
2018-09-20T07:57:06.791Z,21.50
2018-09-20T07:59:34.758Z,21.60
2018-09-20T08:02:02.745Z,21.70
2018-09-20T08:04:30.609Z,21.80
2018-09-20T08:06:58.546Z,22.00
2018-09-20T08:09:27.724Z,22.20
2018-09-20T08:11:56.337Z,22.30
2018-09-20T08:14:24.245Z,22.50
2018-09-20T08:16:52.155Z,22.80
2018-09-20T08:19:20.440Z,23.00
2018-09-20T08:21:48.436Z,22.80
2018-09-20T08:36:16.581Z,22.60
2018-09-20T08:38:44.810Z,22.70
2018-09-20T08:41:12.663Z,22.70
2018-09-20T08:43:41.484Z,23.20
2018-09-20T08:46:09.649Z,23.40
2018-09-20T08:48:37.505Z,23.20
2018-09-20T08:51:05.466Z,23.20
2018-09-20T08:53:33.273Z,23.40
2018-09-20T08:56:01.821Z,23.50
2018-09-20T08:58:32.246Z,23.60
2018-09-20T09:01:01.245Z,23.50
2018-09-20T09:03:29.196Z,23.70
2018-09-20T09:05:57.070Z,23.80
2018-09-20T09:08:24.908Z,23.70
2018-09-20T09:10:52.804Z,23.80
2018-09-20T09:13:20.689Z,23.80
2018-09-20T09:15:48.754Z,23.80
2018-09-20T09:18:16.818Z,23.90
2018-09-20T09:20:44.805Z,24.00
2018-09-20T09:23:12.875Z,24.10
2018-09-20T09:25:40.774Z,24.20
2018-09-20T09:28:08.660Z,24.30
2018-09-20T09:30:36.759Z,24.50
2018-09-20T09:33:04.696Z,24.60
2018-09-20T09:35:32.571Z,24.80
2018-09-20T09:38:00.951Z,24.90
2018-09-20T09:40:29.172Z,24.90
2018-09-20T09:42:57.012Z,25.00
2018-09-20T09:45:24.855Z,25.20
2018-09-20T09:47:52.751Z,25.20
2018-09-20T09:50:20.670Z,25.30
2018-09-20T09:52:49.213Z,25.60
2018-09-20T09:55:17.117Z,25.90
2018-09-20T09:57:49.520Z,26.10
2018-09-20T10:00:21.168Z,26.20
2018-09-20T10:02:49.288Z,26.30
2018-09-20T10:05:17.115Z,26.50
2018-09-20T10:07:44.964Z,26.40
2018-09-20T10:10:12.807Z,26.20
2018-09-20T10:12:40.620Z,26.40
2018-09-20T10:15:08.457Z,26.60
2018-09-20T10:17:36.337Z,26.70
2018-09-20T10:20:04.500Z,26.90
2018-09-20T10:22:32.570Z,26.80
2018-09-20T10:25:00.706Z,26.60
2018-09-20T10:27:28.538Z,26.80
2018-09-20T10:29:56.404Z,26.90
2018-09-20T10:32:24.256Z,27.10
2018-09-20T10:34:52.117Z,27.10
2018-09-20T10:37:19.921Z,27.10
2018-09-20T10:39:47.771Z,27.10
2018-09-20T10:42:16.203Z,27.20
2018-09-20T10:44:44.040Z,27.30
2018-09-20T10:47:11.859Z,27.50
2018-09-20T10:49:39.703Z,27.50
2018-09-20T10:52:07.560Z,27.20
2018-09-20T10:54:35.485Z,27.00
2018-09-20T10:57:03.347Z,27.00
2018-09-20T10:59:31.205Z,27.00
2018-09-20T11:01:59.060Z,27.00
2018-09-20T11:04:26.911Z,27.10
2018-09-20T11:06:54.786Z,27.00
2018-09-20T11:09:22.882Z,27.10
2018-09-20T11:11:50.818Z,27.30
2018-09-20T11:14:18.722Z,27.40
2018-09-20T11:16:46.566Z,27.60
2018-09-20T11:19:14.392Z,27.70
2018-09-20T11:21:42.244Z,27.60
2018-09-20T11:24:10.059Z,27.60
2018-09-20T11:26:37.939Z,27.70
2018-09-20T11:29:05.772Z,28.00
2018-09-20T11:31:33.604Z,28.40
2018-09-20T11:34:01.496Z,28.50
2018-09-20T11:36:29.347Z,28.50
2018-09-20T11:38:57.245Z,28.40
2018-09-20T11:41:25.797Z,28.30
2018-09-20T11:43:53.651Z,28.20
2018-09-20T11:46:21.498Z,28.10
2018-09-20T11:48:49.364Z,28.00
2018-09-20T11:51:17.224Z,28.00
2018-09-20T11:53:45.053Z,28.10
2018-09-20T11:56:12.881Z,28.30
2018-09-20T11:58:40.717Z,28.60
2018-09-20T12:01:08.574Z,28.70
2018-09-20T12:03:36.446Z,29.00
2018-09-20T12:06:04.597Z,29.30
2018-09-20T12:08:32.450Z,29.40
2018-09-20T12:11:00.320Z,29.50
2018-09-20T12:13:28.184Z,29.30
2018-09-20T12:15:56.001Z,29.30
2018-09-20T12:18:23.934Z,28.90
2018-09-20T12:20:51.808Z,28.50
2018-09-20T12:23:19.649Z,28.10
2018-09-20T12:25:47.455Z,28.00
2018-09-20T12:28:15.325Z,28.30
2018-09-20T12:30:43.213Z,28.60
2018-09-20T12:33:11.015Z,28.70
2018-09-20T12:35:38.944Z,28.90
2018-09-20T12:38:06.784Z,29.20
2018-09-20T12:40:34.634Z,29.60
2018-09-20T12:43:03.082Z,29.90
2018-09-20T12:45:30.944Z,29.90
2018-09-20T12:47:58.801Z,29.80
2018-09-20T12:50:26.668Z,29.70
2018-09-20T12:52:54.492Z,29.50
2018-09-20T12:55:22.320Z,29.20
2018-09-20T12:57:50.162Z,29.00
2018-09-20T13:00:19.347Z,29.00
2018-09-20T13:02:47.730Z,28.80
2018-09-20T13:05:15.832Z,28.70
2018-09-20T13:07:44.356Z,28.50
2018-09-20T13:10:12.611Z,28.40
2018-09-20T13:12:40.485Z,28.40
2018-09-20T13:15:08.437Z,28.30
2018-09-20T13:17:36.284Z,28.40
2018-09-20T13:20:04.330Z,28.40
2018-09-20T13:22:32.119Z,28.30
2018-09-20T13:24:59.970Z,28.30
2018-09-20T13:27:27.829Z,28.40
2018-09-20T13:29:57.183Z,28.30
2018-09-20T13:32:26.468Z,28.20
2018-09-20T13:34:55.130Z,28.30
2018-09-20T13:37:23.049Z,28.30
2018-09-20T13:39:51.645Z,28.40
2018-09-20T13:42:19.602Z,28.30
2018-09-20T13:44:47.466Z,28.30
2018-09-20T13:47:15.735Z,28.30
2018-09-20T13:49:43.605Z,28.30
2018-09-20T13:52:11.460Z,28.30
2018-09-20T13:54:39.309Z,28.40
2018-09-20T13:57:07.149Z,28.30
2018-09-20T13:59:35.007Z,28.30
2018-09-20T14:02:02.929Z,28.30
2018-09-20T14:04:30.970Z,28.40
2018-09-20T14:06:58.812Z,28.40
2018-09-20T14:09:26.681Z,28.40
2018-09-20T14:11:54.496Z,28.40
2018-09-20T14:14:22.357Z,28.40
2018-09-20T14:16:50.165Z,28.40
2018-09-20T14:19:17.984Z,28.40
2018-09-20T14:21:45.979Z,28.30
2018-09-20T14:24:13.808Z,28.20
2018-09-20T14:26:41.672Z,28.20
2018-09-20T14:29:09.504Z,28.20
2018-09-20T14:31:37.345Z,28.20
2018-09-20T14:34:05.548Z,28.10
2018-09-20T14:36:33.688Z,28.20
2018-09-20T14:39:01.536Z,28.20
2018-09-20T14:41:29.636Z,28.20
2018-09-20T14:43:57.456Z,28.20
2018-09-20T14:46:25.679Z,28.20
2018-09-20T14:48:53.530Z,28.20
2018-09-20T14:51:21.399Z,28.20
2018-09-20T14:53:50.158Z,28.20
2018-09-20T14:56:18.095Z,28.30
2018-09-20T14:58:45.969Z,28.30
2018-09-20T15:01:13.885Z,28.20
2018-09-20T15:03:42.077Z,28.20
2018-09-20T15:06:09.919Z,28.20
2018-09-20T15:08:38.280Z,28.30
2018-09-20T15:11:06.260Z,28.30
2018-09-20T15:13:34.463Z,28.20
2018-09-20T15:16:02.436Z,28.20
2018-09-20T15:18:30.265Z,28.20
2018-09-20T15:20:58.081Z,28.20
2018-09-20T15:23:25.959Z,28.10
2018-09-20T15:25:54.072Z,28.10
2018-09-20T15:28:21.913Z,28.10
2018-09-20T15:30:49.805Z,28.00
2018-09-20T15:33:17.685Z,27.90
2018-09-20T15:35:45.518Z,28.00
2018-09-20T15:38:13.328Z,28.00
2018-09-20T15:40:41.179Z,27.90
2018-09-20T15:43:09.181Z,28.00
2018-09-20T15:45:37.004Z,28.10
2018-09-20T15:48:04.842Z,28.00
2018-09-20T15:50:32.673Z,27.90
2018-09-20T15:53:00.520Z,27.80
2018-09-20T15:55:28.350Z,27.80
2018-09-20T15:57:56.532Z,27.70
2018-09-20T16:00:24.337Z,27.60
2018-09-20T16:02:52.286Z,27.50
2018-09-20T16:05:20.165Z,27.50
2018-09-20T16:07:48.309Z,27.50
2018-09-20T16:10:16.444Z,27.40
2018-09-20T16:12:44.608Z,27.40
2018-09-20T16:15:12.437Z,27.20
2018-09-20T16:17:40.552Z,27.10
2018-09-20T16:20:08.445Z,27.20
2018-09-20T16:22:36.247Z,27.20
2018-09-20T16:25:04.899Z,27.10
2018-09-20T16:27:32.722Z,26.90
2018-09-20T16:30:17.249Z,26.70
2018-09-20T16:33:12.801Z,26.60
2018-09-20T16:35:56.604Z,26.50
2018-09-20T16:38:36.076Z,26.30
2018-09-20T16:41:06.719Z,26.10
2018-09-20T16:43:34.545Z,25.90
2018-09-20T16:46:03.063Z,25.70
2018-09-20T16:48:31.559Z,25.60
2018-09-20T16:50:59.418Z,25.40
2018-09-20T16:53:27.534Z,25.30
2018-09-20T16:55:55.326Z,25.10
2018-09-20T16:58:23.182Z,25.10
2018-09-20T17:00:51.021Z,24.60
2018-09-20T17:03:19.378Z,24.20
2018-09-20T17:05:47.442Z,24.00
2018-09-20T17:08:15.298Z,23.80
2018-09-20T17:10:43.183Z,23.60
2018-09-20T17:13:11.072Z,23.60
2018-09-20T17:15:38.864Z,23.50
2018-09-20T17:18:06.715Z,23.40
2018-09-20T17:20:34.601Z,23.30
2018-09-20T17:23:02.425Z,23.30
2018-09-20T17:25:30.585Z,23.30
2018-09-20T17:27:58.412Z,23.20
2018-09-20T17:30:26.291Z,23.00
2018-09-20T17:32:54.165Z,22.90
2018-09-20T17:35:22.761Z,22.70
2018-09-20T17:37:52.230Z,22.70
2018-09-20T17:40:21.761Z,22.60
2018-09-20T17:42:51.987Z,22.60
2018-09-20T17:45:19.860Z,22.40
2018-09-20T17:47:47.693Z,22.30
2018-09-20T17:50:17.349Z,22.20
2018-09-20T17:52:46.212Z,22.20
2018-09-20T17:55:14.782Z,22.10
2018-09-20T17:57:43.612Z,22.00
2018-09-20T18:00:11.881Z,21.80
2018-09-20T18:02:39.743Z,21.70
2018-09-20T18:05:07.625Z,21.60
2018-09-20T18:07:35.446Z,21.50
2018-09-20T18:10:03.345Z,21.40
2018-09-20T18:12:31.533Z,21.30
2018-09-20T18:14:59.471Z,21.20
2018-09-20T18:17:27.734Z,21.20
2018-09-20T18:19:55.592Z,21.30
2018-09-20T18:22:24.231Z,21.10
2018-09-20T18:24:52.088Z,21.00
2018-09-20T18:27:19.899Z,21.00
2018-09-20T18:29:47.912Z,20.90
2018-09-20T18:32:15.752Z,20.80
2018-09-20T18:34:43.633Z,20.70
2018-09-20T18:37:11.482Z,20.60
2018-09-20T18:39:39.329Z,20.60
2018-09-20T18:42:07.243Z,20.60
2018-09-20T18:44:35.131Z,20.60
2018-09-20T18:47:03.652Z,20.60
2018-09-20T18:49:31.493Z,20.50
2018-09-20T18:51:59.390Z,20.50
2018-09-20T18:54:27.274Z,20.40
2018-09-20T18:56:55.121Z,20.30
2018-09-20T18:59:23.625Z,20.20
2018-09-20T19:01:51.457Z,20.10
2018-09-20T19:04:19.332Z,20.10
2018-09-20T19:06:47.169Z,20.00
2018-09-20T19:09:15.023Z,19.80
2018-09-20T19:11:42.867Z,19.80
2018-09-20T19:14:10.782Z,19.70
2018-09-20T19:16:38.909Z,19.70
2018-09-20T19:19:06.812Z,19.70
2018-09-20T19:21:34.969Z,19.60
2018-09-20T19:24:03.945Z,19.50
2018-09-20T19:26:31.818Z,19.30
2018-09-20T19:28:59.677Z,19.10
2018-09-20T19:31:28.035Z,19.00
2018-09-20T19:33:55.919Z,19.00
2018-09-20T19:36:24.457Z,19.10
2018-09-20T19:38:52.424Z,19.10
2018-09-20T19:41:20.956Z,19.20
2018-09-20T19:43:49.358Z,19.10
2018-09-20T19:46:17.233Z,19.00
2018-09-20T19:48:45.131Z,18.90
2018-09-20T19:51:13.054Z,18.90
2018-09-20T19:53:40.977Z,18.90
2018-09-20T19:56:08.882Z,18.80
2018-09-20T19:58:37.620Z,18.80
2018-09-20T20:01:05.760Z,18.70
2018-09-20T20:03:34.203Z,18.60
2018-09-20T20:06:02.748Z,18.60
2018-09-20T20:08:30.918Z,18.50
2018-09-20T20:10:59.621Z,18.40
2018-09-20T20:13:28.121Z,18.50
2018-09-20T20:15:56.988Z,18.50
2018-09-20T20:18:24.889Z,18.50
2018-09-20T20:20:52.779Z,18.50
2018-09-20T20:23:21.659Z,18.60
2018-09-20T20:25:50.073Z,18.60
2018-09-20T20:28:17.947Z,18.40
2018-09-20T20:30:45.891Z,18.30
2018-09-20T20:33:14.443Z,18.20
2018-09-20T20:35:43.689Z,18.10
2018-09-20T20:38:11.614Z,18.10
2018-09-20T20:40:39.563Z,18.00
2018-09-20T20:43:08.148Z,18.00
2018-09-20T20:45:37.090Z,18.00
2018-09-20T20:48:05.122Z,17.90
2018-09-20T20:50:35.498Z,18.10
2018-09-20T20:53:03.514Z,18.00
2018-09-20T20:55:31.898Z,18.10
2018-09-20T20:57:59.782Z,18.00
2018-09-20T21:00:28.949Z,17.90
2018-09-20T21:02:57.375Z,17.90
2018-09-20T21:05:25.320Z,17.80
2018-09-20T21:07:53.337Z,17.80
2018-09-20T21:10:22.512Z,17.80
2018-09-20T21:12:50.735Z,17.70
2018-09-20T21:15:18.661Z,17.50
2018-09-20T21:17:47.250Z,17.50
2018-09-20T21:20:16.402Z,17.40
2018-09-20T21:22:46.126Z,17.40
2018-09-20T21:25:14.813Z,17.30
2018-09-20T21:27:43.354Z,17.30
2018-09-20T21:30:11.735Z,17.40
2018-09-20T21:32:41.202Z,17.40
2018-09-20T21:35:09.376Z,17.40
2018-09-20T21:37:39.892Z,17.30
2018-09-20T21:40:08.381Z,17.30
2018-09-20T21:42:39.716Z,17.30
2018-09-20T21:45:08.768Z,17.20
2018-09-20T21:47:37.480Z,17.10
2018-09-20T21:50:06.791Z,17.00
2018-09-20T21:52:34.967Z,17.00
2018-09-20T21:55:02.953Z,17.10
2018-09-20T21:57:34.906Z,16.90
2018-09-20T22:00:03.903Z,16.90
2018-09-20T22:02:38.732Z,17.00
2018-09-20T22:05:07.443Z,17.10
2018-09-20T22:07:37.276Z,17.10
2018-09-20T22:10:06.294Z,17.10
2018-09-20T22:12:36.006Z,17.00
2018-09-20T22:15:09.911Z,16.90
2018-09-20T22:17:39.341Z,16.80
2018-09-20T22:20:09.902Z,16.80
2018-09-20T22:22:41.123Z,16.80
2018-09-20T22:25:48.803Z,16.70
2018-09-20T22:28:17.633Z,16.70
2018-09-20T22:30:46.094Z,16.60
2018-09-20T22:33:14.659Z,16.50
2018-09-20T22:35:43.527Z,16.40
2018-09-20T22:38:14.383Z,16.30
2018-09-20T22:40:43.204Z,16.30
2018-09-20T22:43:13.899Z,16.30
2018-09-20T22:45:42.173Z,16.30
2018-09-20T22:48:15.705Z,16.20
2018-09-20T22:50:44.998Z,16.20
2018-09-20T22:53:13.085Z,16.20
2018-09-20T22:55:42.967Z,16.20
2018-09-20T22:58:13.208Z,16.30
2018-09-20T23:00:42.814Z,16.30
2018-09-20T23:03:11.102Z,16.20
2018-09-20T23:05:42.733Z,16.20
2018-09-20T23:08:12.432Z,16.00
2018-09-20T23:10:46.978Z,16.00
2018-09-20T23:13:16.490Z,15.90
2018-09-20T23:15:44.863Z,15.90
2018-09-20T23:18:15.922Z,15.80
2018-09-20T23:20:46.524Z,15.70
2018-09-20T23:23:15.736Z,15.60
2018-09-20T23:25:46.397Z,15.80
2018-09-20T23:28:16.209Z,15.70
2018-09-20T23:30:48.096Z,15.70
2018-09-20T23:33:16.747Z,15.60
2018-09-20T23:35:46.455Z,15.60
2018-09-20T23:38:15.748Z,15.60
2018-09-20T23:40:43.907Z,15.60
2018-09-20T23:43:14.437Z,15.60
2018-09-20T23:45:43.139Z,15.70
2018-09-20T23:48:11.083Z,15.60
2018-09-20T23:50:41.309Z,15.60
2018-09-20T23:53:10.598Z,15.50
2018-09-20T23:55:38.814Z,15.40
2018-09-20T23:58:08.692Z,15.40
